createdAt,value
2018-01-12T00:00:28.527Z,65.50
2018-01-12T00:02:56.802Z,65.50
2018-01-12T00:05:25.115Z,65.30
2018-01-12T00:07:53.393Z,65.80
2018-01-12T00:10:22.456Z,65.70
2018-01-12T00:12:50.726Z,65.80
2018-01-12T00:15:19.000Z,66.20
2018-01-12T00:17:47.283Z,66.10
2018-01-12T00:20:15.547Z,65.90
2018-01-12T00:22:43.835Z,66.30
2018-01-12T00:25:12.105Z,66.00
2018-01-12T00:27:40.339Z,66.10
2018-01-12T00:30:08.638Z,65.80
2018-01-12T00:32:37.678Z,66.00
2018-01-12T00:35:06.748Z,66.10
2018-01-12T00:37:35.025Z,66.10
2018-01-12T00:40:03.270Z,66.20
2018-01-12T00:42:31.559Z,65.70
2018-01-12T00:44:59.795Z,66.30
2018-01-12T00:47:28.122Z,66.20
2018-01-12T00:49:56.388Z,65.90
2018-01-12T00:52:24.664Z,65.70
2018-01-12T00:54:52.960Z,65.90
2018-01-12T00:57:21.256Z,66.00
2018-01-12T00:59:49.544Z,65.80
2018-01-12T01:02:17.772Z,65.80
2018-01-12T01:04:46.045Z,65.50
2018-01-12T01:07:14.322Z,65.50
2018-01-12T01:09:43.365Z,66.10
2018-01-12T01:12:11.654Z,66.10
2018-01-12T01:14:40.709Z,66.00
2018-01-12T01:17:08.954Z,65.90
2018-01-12T01:19:37.228Z,66.20
2018-01-12T01:22:05.497Z,66.20
2018-01-12T01:24:33.771Z,66.50
2018-01-12T01:27:02.070Z,66.50
2018-01-12T01:29:30.350Z,66.80
2018-01-12T01:31:58.576Z,66.50
2018-01-12T01:34:27.628Z,66.40
2018-01-12T01:36:55.895Z,66.30
2018-01-12T01:39:24.203Z,66.00
2018-01-12T01:41:52.480Z,66.30
2018-01-12T01:44:20.743Z,66.20
2018-01-12T01:46:49.030Z,65.80
2018-01-12T01:49:17.303Z,65.90
2018-01-12T01:51:45.616Z,65.90
2018-01-12T01:54:14.651Z,65.90
2018-01-12T01:56:42.890Z,65.80
2018-01-12T01:59:11.965Z,66.70
2018-01-12T02:01:40.236Z,66.70
2018-01-12T02:04:08.528Z,66.70
2018-01-12T02:06:36.761Z,66.40
2018-01-12T02:09:05.029Z,67.00
2018-01-12T02:11:33.300Z,66.70
2018-01-12T02:14:01.884Z,66.90
2018-01-12T02:16:30.170Z,66.90
2018-01-12T02:18:58.403Z,66.50
2018-01-12T02:21:27.455Z,66.70
2018-01-12T02:23:55.681Z,66.70
2018-01-12T02:26:24.735Z,66.50
2018-01-12T02:28:53.024Z,66.40
2018-01-12T02:31:21.255Z,66.20
2018-01-12T02:33:49.550Z,66.10
2018-01-12T02:36:17.783Z,66.20
2018-01-12T02:38:46.866Z,66.40
2018-01-12T02:41:15.144Z,66.40
2018-01-12T02:43:43.369Z,66.40
2018-01-12T02:46:11.617Z,66.30
2018-01-12T02:48:39.864Z,66.50
2018-01-12T02:51:08.175Z,66.40
2018-01-12T02:53:37.171Z,67.40
2018-01-12T02:56:05.409Z,66.60
2018-01-12T02:58:33.700Z,66.90
2018-01-12T03:01:01.967Z,66.80
2018-01-12T03:03:30.216Z,67.10
2018-01-12T03:05:58.496Z,66.80
2018-01-12T03:08:26.757Z,66.90
2018-01-12T03:10:55.007Z,66.40
2018-01-12T03:13:23.293Z,66.70
2018-01-12T03:15:51.546Z,66.70
2018-01-12T03:18:20.550Z,66.80
2018-01-12T03:20:48.839Z,66.80
2018-01-12T03:23:17.083Z,66.70
2018-01-12T03:25:45.347Z,66.50
2018-01-12T03:28:13.581Z,66.50
2018-01-12T03:30:41.878Z,66.80
2018-01-12T03:33:10.164Z,66.80
2018-01-12T03:35:38.443Z,66.80
2018-01-12T03:38:06.731Z,66.40
2018-01-12T03:40:34.957Z,66.70
2018-01-12T03:43:03.205Z,67.60
2018-01-12T03:45:32.220Z,67.40
2018-01-12T03:48:00.471Z,67.30
2018-01-12T03:50:28.773Z,67.10
2018-01-12T03:52:57.044Z,67.40
2018-01-12T03:55:26.076Z,67.80
2018-01-12T03:57:54.320Z,67.80
2018-01-12T04:00:22.600Z,67.50
2018-01-12T04:02:50.857Z,67.70
2018-01-12T04:05:19.893Z,67.10
2018-01-12T04:07:48.199Z,67.10
2018-01-12T04:10:16.474Z,67.40
2018-01-12T04:12:44.705Z,67.00
2018-01-12T04:15:12.984Z,67.00
2018-01-12T04:17:41.217Z,67.00
2018-01-12T04:20:09.568Z,66.70
2018-01-12T04:22:37.832Z,66.90
2018-01-12T04:25:06.102Z,66.80
2018-01-12T04:27:34.384Z,66.80
2018-01-12T04:30:02.620Z,67.00
2018-01-12T04:32:31.679Z,66.80
2018-01-12T04:34:59.930Z,66.80
2018-01-12T04:37:28.221Z,66.90
2018-01-12T04:39:56.498Z,67.70
2018-01-12T04:42:24.802Z,67.70
2018-01-12T04:44:53.077Z,67.80
2018-01-12T04:47:21.312Z,67.60
2018-01-12T04:49:49.620Z,67.10
2018-01-12T04:52:17.907Z,67.10
2018-01-12T04:54:46.144Z,66.70
2018-01-12T04:57:14.386Z,67.00
2018-01-12T04:59:43.424Z,66.90
2018-01-12T05:02:11.778Z,66.80
2018-01-12T05:04:40.041Z,67.10
2018-01-12T05:07:09.061Z,66.90
2018-01-12T05:09:37.352Z,66.90
2018-01-12T05:12:05.661Z,66.90
2018-01-12T05:14:33.970Z,67.20
2018-01-12T05:17:03.012Z,66.80
2018-01-12T05:19:31.272Z,66.80
2018-01-12T05:21:59.569Z,67.80
2018-01-12T05:24:27.853Z,67.90
2018-01-12T05:26:56.119Z,67.10
2018-01-12T05:29:24.466Z,67.00
2018-01-12T05:31:52.768Z,67.30
2018-01-12T05:34:20.993Z,67.10
2018-01-12T05:36:50.063Z,67.90
2018-01-12T05:39:18.296Z,67.90
2018-01-12T05:41:46.548Z,67.60
2018-01-12T05:44:15.591Z,68.10
2018-01-12T05:46:43.900Z,68.00
2018-01-12T05:49:12.161Z,67.40
2018-01-12T05:51:40.436Z,68.50
2018-01-12T05:54:08.720Z,69.00
2018-01-12T05:56:36.999Z,68.00
2018-01-12T05:59:05.286Z,67.90
2018-01-12T06:01:45.342Z,67.70
2018-01-12T06:04:25.308Z,68.20
2018-01-12T06:06:54.313Z,67.90
2018-01-12T06:09:22.613Z,67.90
2018-01-12T06:11:50.850Z,68.20
2018-01-12T06:14:19.226Z,68.60
2018-01-12T06:16:47.499Z,68.30
2018-01-12T06:19:15.732Z,67.90
2018-01-12T06:21:44.045Z,68.30
2018-01-12T06:24:12.268Z,68.40
2018-01-12T06:26:40.548Z,68.90
2018-01-12T06:29:08.831Z,68.40
2018-01-12T06:31:37.066Z,69.40
2018-01-12T06:34:05.313Z,68.60
2018-01-12T06:36:33.591Z,68.80
2018-01-12T06:39:01.859Z,69.20
2018-01-12T06:41:30.163Z,68.80
2018-01-12T06:43:58.392Z,68.80
2018-01-12T06:46:26.689Z,68.80
2018-01-12T06:48:54.911Z,69.00
2018-01-12T06:51:23.995Z,69.20
2018-01-12T06:53:52.288Z,69.20
2018-01-12T06:56:20.555Z,69.10
2018-01-12T06:58:48.810Z,69.00
2018-01-12T07:01:17.045Z,69.00
2018-01-12T07:03:45.300Z,69.20
2018-01-12T07:06:13.564Z,68.80
2018-01-12T07:08:41.848Z,68.80
2018-01-12T07:11:10.909Z,68.90
2018-01-12T07:13:39.134Z,68.90
2018-01-12T07:16:07.458Z,69.10
2018-01-12T07:18:35.740Z,69.20
2018-01-12T07:21:15.709Z,68.50
2018-01-12T07:23:46.872Z,68.70
2018-01-12T07:26:15.940Z,69.10
2018-01-12T07:28:44.168Z,69.10
2018-01-12T07:31:12.461Z,69.00
2018-01-12T07:33:40.733Z,69.20
2018-01-12T07:36:08.951Z,68.90
2018-01-12T07:38:37.270Z,69.10
2018-01-12T07:41:05.518Z,68.70
2018-01-12T07:43:33.796Z,68.80
2018-01-12T07:46:02.036Z,68.70
2018-01-12T07:48:30.319Z,68.90
2018-01-12T07:50:58.654Z,69.60
2018-01-12T07:53:27.685Z,69.20
2018-01-12T07:55:55.917Z,69.20
2018-01-12T07:58:24.211Z,69.00
2018-01-12T08:00:58.067Z,68.70
2018-01-12T08:03:26.387Z,69.30
2018-01-12T08:05:55.422Z,68.80
2018-01-12T08:08:23.740Z,68.70
2018-01-12T08:10:52.011Z,69.50
2018-01-12T08:13:20.246Z,69.30
2018-01-12T08:15:48.542Z,69.20
2018-01-12T08:18:16.767Z,68.70
2018-01-12T08:20:45.067Z,68.40
2018-01-12T08:23:13.341Z,68.30
2018-01-12T08:25:41.603Z,68.80
2018-01-12T08:28:09.840Z,67.80
2018-01-12T08:30:38.084Z,67.90
2018-01-12T08:33:06.335Z,68.60
2018-01-12T08:35:34.563Z,68.50
2018-01-12T08:38:02.907Z,68.00
2018-01-12T08:40:31.188Z,68.40
2018-01-12T08:42:59.420Z,68.60
2018-01-12T08:45:28.492Z,68.90
2018-01-12T08:47:56.735Z,68.80
2018-01-12T08:50:25.012Z,68.70
2018-01-12T08:52:53.304Z,68.50
2018-01-12T08:55:21.571Z,68.50
2018-01-12T08:57:49.859Z,68.60
2018-01-12T09:00:18.124Z,68.80
2018-01-12T09:02:46.377Z,68.10
2018-01-12T09:05:14.620Z,67.80
2018-01-12T09:07:43.687Z,68.70
2018-01-12T09:10:11.967Z,68.00
2018-01-12T09:12:40.228Z,67.90
2018-01-12T09:15:16.202Z,68.20
2018-01-12T09:17:51.304Z,67.90
2018-01-12T09:20:19.588Z,68.00
2018-01-12T09:22:47.853Z,68.20
2018-01-12T09:25:25.951Z,68.20
2018-01-12T09:27:54.181Z,68.00
2018-01-12T09:30:22.440Z,68.30
2018-01-12T09:32:50.720Z,67.80
2018-01-12T09:35:18.986Z,68.10
2018-01-12T09:37:59.132Z,68.20
2018-01-12T09:43:21.696Z,67.50
2018-01-12T09:45:49.982Z,67.70
2018-01-12T09:48:37.943Z,67.60
2018-01-12T09:51:06.198Z,67.60
2018-01-12T09:53:34.499Z,67.90
2018-01-12T09:56:02.765Z,67.90
2018-01-12T09:58:31.064Z,67.70
2018-01-12T10:01:03.322Z,67.40
2018-01-12T10:03:31.595Z,67.40
2018-01-12T10:05:59.838Z,67.30
2018-01-12T10:08:28.140Z,67.30
2018-01-12T10:10:56.389Z,67.40
2018-01-12T10:13:24.639Z,67.30
2018-01-12T10:15:53.683Z,68.10
2018-01-12T10:18:33.812Z,67.20
2018-01-12T10:21:12.497Z,67.40
2018-01-12T10:23:40.786Z,67.10
2018-01-12T10:26:09.010Z,66.90
2018-01-12T10:28:49.048Z,67.50
2018-01-12T10:31:17.322Z,66.50
2018-01-12T10:34:05.239Z,66.80
2018-01-12T10:36:39.908Z,66.90
2018-01-12T10:39:21.106Z,66.90
2018-01-12T10:42:01.302Z,66.90
2018-01-12T10:44:30.355Z,67.00
2018-01-12T10:47:16.334Z,67.00
2018-01-12T10:49:57.383Z,67.20
2018-01-12T10:55:22.203Z,66.80
2018-01-12T10:57:50.503Z,66.80
2018-01-12T11:00:32.748Z,66.70
2018-01-12T11:03:01.073Z,67.00
2018-01-12T11:05:29.338Z,67.00
2018-01-12T11:07:57.560Z,66.70
2018-01-12T11:10:25.884Z,66.60
2018-01-12T11:12:54.925Z,66.40
2018-01-12T11:15:23.212Z,66.40
2018-01-12T11:17:51.498Z,66.50
2018-01-12T11:20:19.766Z,66.50
2018-01-12T11:22:48.004Z,66.60
2018-01-12T11:25:16.237Z,66.50
2018-01-12T11:27:45.269Z,66.50
2018-01-12T11:30:13.538Z,66.40
2018-01-12T11:32:41.839Z,66.30
2018-01-12T11:35:10.062Z,66.10
2018-01-12T11:37:39.111Z,66.30
2018-01-12T11:40:07.356Z,66.20
2018-01-12T11:42:35.603Z,66.00
2018-01-12T11:45:03.880Z,66.00
2018-01-12T11:47:32.142Z,66.20
2018-01-12T11:50:00.381Z,66.20
2018-01-12T11:52:28.631Z,66.20
2018-01-12T11:54:57.625Z,65.70
2018-01-12T11:57:26.688Z,66.00
2018-01-12T11:59:54.923Z,66.00
2018-01-12T12:02:23.198Z,66.20
2018-01-12T12:04:51.432Z,66.00
2018-01-12T12:07:19.665Z,66.00
2018-01-12T12:09:47.972Z,67.00
2018-01-12T12:12:16.238Z,66.10
2018-01-12T12:14:44.546Z,66.00
2018-01-12T12:17:12.830Z,66.20
2018-01-12T12:19:41.090Z,66.30
2018-01-12T12:22:09.343Z,66.30
2018-01-12T12:24:37.588Z,66.40
2018-01-12T12:27:05.886Z,66.00
2018-01-12T12:29:34.167Z,65.80
2018-01-12T12:32:02.479Z,65.90
2018-01-12T12:34:30.698Z,65.90
2018-01-12T12:36:58.980Z,66.10
2018-01-12T12:39:27.209Z,66.00
2018-01-12T12:41:55.483Z,66.00
2018-01-12T12:44:23.768Z,65.90
2018-01-12T12:46:52.060Z,65.80
2018-01-12T12:49:21.128Z,65.70
2018-01-12T12:51:49.414Z,65.70
2018-01-12T12:54:17.796Z,65.70
2018-01-12T12:56:46.058Z,65.80
2018-01-12T12:59:14.335Z,65.80
2018-01-12T13:01:42.585Z,65.60
2018-01-12T13:04:10.827Z,65.60
2018-01-12T13:06:39.076Z,65.80
2018-01-12T13:09:08.089Z,66.10
2018-01-12T13:11:36.406Z,65.90
2018-01-12T13:14:04.683Z,66.60
2018-01-12T13:16:32.963Z,65.90
2018-01-12T13:19:01.228Z,65.70
2018-01-12T13:21:29.505Z,65.90
2018-01-12T13:23:57.795Z,65.80
2018-01-12T13:26:26.029Z,65.70
2018-01-12T13:28:55.036Z,65.60
2018-01-12T13:31:23.812Z,65.50
2018-01-12T13:33:52.998Z,65.80
2018-01-12T13:36:21.994Z,66.30
2018-01-12T13:38:51.041Z,65.70
2018-01-12T13:41:19.429Z,65.70
2018-01-12T13:43:47.725Z,65.80
2018-01-12T13:46:15.989Z,65.50
2018-01-12T13:48:44.302Z,65.80
2018-01-12T13:51:13.333Z,65.10
2018-01-12T13:53:41.573Z,65.10
2018-01-12T13:56:10.587Z,65.00
2018-01-12T13:58:38.848Z,65.00
2018-01-12T14:01:07.864Z,64.90
2018-01-12T14:03:36.120Z,64.90
2018-01-12T14:06:05.172Z,65.10
2018-01-12T14:08:33.423Z,65.20
2018-01-12T14:11:01.708Z,65.10
2018-01-12T14:13:29.936Z,65.10
2018-01-12T14:15:59.875Z,65.30
2018-01-12T14:18:28.158Z,66.10
2018-01-12T14:20:56.406Z,65.30
2018-01-12T14:23:25.399Z,65.40
2018-01-12T14:25:54.428Z,65.40
2018-01-12T14:28:22.712Z,65.40
2018-01-12T14:30:50.976Z,65.00
2018-01-12T14:33:19.263Z,65.10
2018-01-12T14:35:47.526Z,65.00
2018-01-12T14:38:15.933Z,64.80
2018-01-12T14:40:44.212Z,65.80
2018-01-12T14:43:12.501Z,65.50
2018-01-12T14:45:40.785Z,65.80
2018-01-12T14:48:09.022Z,65.30
2018-01-12T14:50:37.416Z,65.40
2018-01-12T14:53:05.680Z,65.60
2018-01-12T14:55:33.947Z,65.80
2018-01-12T14:58:02.275Z,65.70
2018-01-12T15:00:30.508Z,66.00
2018-01-12T15:02:58.782Z,66.00
2018-01-12T15:05:27.070Z,65.90
2018-01-12T15:07:55.367Z,65.90
2018-01-12T15:10:23.609Z,65.70
2018-01-12T15:12:51.892Z,65.70
2018-01-12T15:15:20.430Z,65.80
2018-01-12T15:17:48.706Z,65.60
2018-01-12T15:20:16.931Z,65.60
2018-01-12T15:22:45.208Z,65.60
2018-01-12T15:25:13.491Z,65.60
2018-01-12T15:27:41.796Z,65.60
2018-01-12T15:30:10.025Z,65.60
2018-01-12T15:32:39.100Z,65.80
2018-01-12T15:35:07.375Z,66.50
2018-01-12T15:37:35.612Z,65.90
2018-01-12T15:40:03.886Z,65.90
2018-01-12T15:42:32.123Z,65.90
2018-01-12T15:45:01.180Z,66.00
2018-01-12T15:47:29.424Z,66.10
2018-01-12T15:49:57.723Z,66.00
2018-01-12T15:52:25.994Z,66.10
2018-01-12T15:54:54.315Z,66.10
2018-01-12T15:57:23.329Z,66.80
2018-01-12T15:59:51.648Z,66.00
2018-01-12T16:02:19.902Z,66.20
2018-01-12T16:04:48.146Z,66.20
2018-01-12T16:07:16.395Z,66.20
2018-01-12T16:09:44.666Z,66.20
2018-01-12T16:12:12.905Z,66.40
2018-01-12T16:14:41.154Z,66.40
2018-01-12T16:17:10.165Z,66.50
2018-01-12T16:19:38.459Z,66.50
2018-01-12T16:22:06.738Z,66.50
2018-01-12T16:24:35.013Z,66.60
2018-01-12T16:27:03.338Z,66.50
2018-01-12T16:29:31.671Z,66.80
2018-01-12T16:32:00.707Z,67.10
2018-01-12T16:34:28.956Z,67.10
2018-01-12T16:36:57.189Z,67.10
2018-01-12T16:39:26.320Z,66.80
2018-01-12T16:41:54.580Z,66.90
2018-01-12T16:44:22.859Z,67.10
2018-01-12T16:46:51.128Z,67.10
2018-01-12T16:49:19.446Z,67.10
2018-01-12T16:51:47.733Z,67.30
2018-01-12T16:54:16.013Z,67.20
2018-01-12T16:56:44.249Z,67.20
2018-01-12T16:59:12.535Z,67.50
2018-01-12T17:01:40.828Z,67.40
2018-01-12T17:04:09.064Z,67.30
2018-01-12T17:06:37.672Z,67.20
2018-01-12T17:09:05.916Z,67.40
2018-01-12T17:11:34.963Z,67.30
2018-01-12T17:14:03.684Z,67.30
2018-01-12T17:16:31.979Z,67.40
2018-01-12T17:19:00.989Z,67.60
2018-01-12T17:21:29.237Z,67.70
2018-01-12T17:23:58.251Z,67.40
2018-01-12T17:26:26.505Z,67.40
2018-01-12T17:28:55.530Z,68.00
2018-01-12T17:31:23.792Z,68.00
2018-01-12T17:33:52.825Z,67.70
2018-01-12T17:36:21.090Z,67.70
2018-01-12T17:38:49.321Z,68.00
2018-01-12T17:41:18.348Z,68.20
2018-01-12T17:43:46.648Z,68.20
2018-01-12T17:46:14.876Z,68.30
2018-01-12T17:48:43.900Z,68.80
2018-01-12T17:51:12.185Z,68.70
2018-01-12T17:53:40.504Z,69.30
2018-01-12T17:56:08.780Z,68.80
2018-01-12T17:58:37.056Z,68.40
2018-01-12T18:01:05.344Z,68.20
2018-01-12T18:03:33.582Z,68.40
2018-01-12T18:06:01.884Z,68.60
2018-01-12T18:08:30.116Z,68.80
2018-01-12T18:10:58.439Z,68.30
2018-01-12T18:13:26.685Z,68.60
2018-01-12T18:15:54.986Z,68.10
2018-01-12T18:18:23.282Z,68.20
2018-01-12T18:20:51.551Z,68.40
2018-01-12T18:23:19.840Z,68.80
2018-01-12T18:25:48.123Z,68.70
2018-01-12T18:28:16.380Z,68.80
2018-01-12T18:30:44.660Z,68.70
2018-01-12T18:33:12.940Z,68.80
2018-01-12T18:35:41.181Z,68.70
2018-01-12T18:38:09.455Z,68.50
2018-01-12T18:40:38.047Z,69.20
2018-01-12T18:43:07.101Z,68.60
2018-01-12T18:45:36.111Z,69.20
2018-01-12T18:48:04.431Z,69.20
2018-01-12T18:50:32.660Z,68.60
2018-01-12T18:53:00.968Z,68.40
2018-01-12T18:55:29.245Z,68.30
2018-01-12T18:57:57.537Z,68.80
2018-01-12T19:00:25.851Z,68.70
2018-01-12T19:02:54.904Z,69.10
2018-01-12T19:05:23.200Z,68.30
2018-01-12T19:07:51.444Z,67.90
2018-01-12T19:10:19.737Z,68.10
2018-01-12T19:12:47.965Z,67.90
2018-01-12T19:15:17.055Z,67.80
2018-01-12T19:17:46.084Z,67.60
2018-01-12T19:20:14.365Z,67.60
2018-01-12T19:22:42.614Z,67.70
2018-01-12T19:25:11.605Z,67.10
2018-01-12T19:27:39.888Z,67.10
2018-01-12T19:30:08.943Z,67.00
2018-01-12T19:32:37.195Z,66.90
2018-01-12T19:35:05.471Z,66.80
2018-01-12T19:37:33.755Z,66.70
2018-01-12T19:40:02.032Z,66.70
2018-01-12T19:42:30.280Z,66.70
2018-01-12T19:44:58.532Z,66.70
2018-01-12T19:47:27.646Z,67.00
2018-01-12T19:49:55.936Z,67.00
2018-01-12T19:52:24.237Z,67.00
2018-01-12T19:54:53.373Z,67.00
2018-01-12T19:57:21.614Z,66.90
2018-01-12T19:59:49.892Z,67.00
2018-01-12T20:02:18.163Z,66.90
2018-01-12T20:04:46.413Z,67.00
2018-01-12T20:07:16.157Z,66.90
2018-01-12T20:09:44.395Z,66.90
2018-01-12T20:12:12.665Z,67.00
2018-01-12T20:14:41.718Z,66.80
2018-01-12T20:17:10.016Z,66.80
2018-01-12T20:19:38.267Z,66.60
2018-01-12T20:22:06.541Z,66.40
2018-01-12T20:24:34.884Z,66.50
2018-01-12T20:27:03.272Z,66.70
2018-01-12T20:29:31.557Z,66.70
2018-01-12T20:31:59.793Z,66.70
2018-01-12T20:34:28.822Z,66.70
2018-01-12T20:36:57.139Z,66.70
2018-01-12T20:39:25.404Z,66.70
2018-01-12T20:41:53.669Z,66.70
2018-01-12T20:44:21.937Z,66.50
2018-01-12T20:46:50.355Z,66.50
2018-01-12T20:49:18.587Z,66.50
2018-01-12T20:51:47.104Z,66.70
2018-01-12T20:54:16.130Z,66.70
2018-01-12T20:56:46.717Z,66.80
2018-01-12T20:59:14.985Z,66.80
2018-01-12T21:01:43.232Z,66.80
2018-01-12T21:04:11.538Z,66.70
2018-01-12T21:06:39.837Z,66.90
2018-01-12T21:09:08.150Z,66.90
2018-01-12T21:11:37.186Z,66.70
2018-01-12T21:14:05.436Z,66.70
2018-01-12T21:16:33.739Z,66.90
2018-01-12T21:19:02.033Z,67.10
2018-01-12T21:21:30.308Z,67.30
2018-01-12T21:23:58.650Z,67.40
2018-01-12T21:26:27.033Z,67.10
2018-01-12T21:28:55.294Z,67.00
2018-01-12T21:31:24.313Z,66.50
2018-01-12T21:33:52.603Z,66.40
2018-01-12T21:36:20.925Z,66.60
2018-01-12T21:38:49.167Z,66.40
2018-01-12T21:41:17.494Z,66.60
2018-01-12T21:43:45.786Z,66.50
2018-01-12T21:46:14.022Z,66.10
2018-01-12T21:48:42.288Z,66.50
2018-01-12T21:51:10.545Z,66.50
2018-01-12T21:53:38.804Z,66.40
2018-01-12T21:56:07.122Z,66.50
2018-01-12T21:58:35.389Z,65.90
2018-01-12T22:01:03.684Z,66.20
2018-01-12T22:03:31.979Z,66.50
2018-01-12T22:06:01.001Z,66.30
2018-01-12T22:08:29.264Z,66.30
2018-01-12T22:10:57.512Z,66.40
2018-01-12T22:13:25.850Z,66.40
2018-01-12T22:15:54.136Z,66.50
2018-01-12T22:18:22.420Z,66.00
2018-01-12T22:20:50.703Z,65.90
2018-01-12T22:23:18.941Z,66.40
2018-01-12T22:25:47.235Z,66.60
2018-01-12T22:28:15.518Z,66.40
2018-01-12T22:30:43.771Z,66.40
2018-01-12T22:33:12.037Z,66.80
2018-01-12T22:35:40.308Z,66.40
2018-01-12T22:38:09.410Z,66.00
2018-01-12T22:40:37.719Z,65.90
2018-01-12T22:43:05.970Z,66.30
2018-01-12T22:45:35.005Z,65.80
2018-01-12T22:48:03.268Z,65.70
2018-01-12T22:50:31.578Z,65.40
2018-01-12T22:52:59.858Z,65.80
2018-01-12T22:55:28.150Z,66.30
2018-01-12T22:57:56.403Z,66.40
2018-01-12T23:00:24.714Z,67.30
2018-01-12T23:02:53.745Z,65.60
2018-01-12T23:05:21.992Z,65.60
2018-01-12T23:07:50.289Z,65.60
2018-01-12T23:10:18.529Z,65.80
2018-01-12T23:12:47.536Z,66.20
2018-01-12T23:15:16.633Z,66.60
2018-01-12T23:17:45.680Z,66.60
2018-01-12T23:20:13.923Z,66.50
2018-01-12T23:22:42.185Z,66.50
2018-01-12T23:25:11.201Z,66.50
2018-01-12T23:27:39.489Z,66.50
2018-01-12T23:30:07.765Z,66.70
2018-01-12T23:32:35.997Z,66.60
2018-01-12T23:35:05.065Z,66.20
2018-01-12T23:37:33.351Z,66.10
2018-01-12T23:40:01.609Z,66.60
2018-01-12T23:42:29.861Z,66.90
2018-01-12T23:44:58.099Z,66.90
2018-01-12T23:47:27.181Z,66.40
2018-01-12T23:49:55.423Z,66.30
2018-01-12T23:52:23.716Z,66.90
2018-01-12T23:54:51.993Z,66.60
2018-01-12T23:57:20.271Z,66.90
2018-01-12T23:59:49.333Z,66.70
